sensor_id;sensor_type;location;lat;lon;timestamp;temperature;humidity
52609;DHT22;38503;48.544;12.142;2022-10-20T00:02:06;9.90;99.90
52609;DHT22;38503;48.544;12.142;2022-10-20T00:04:33;9.80;99.90
52609;DHT22;38503;48.544;12.142;2022-10-20T00:07:00;9.80;99.90
52609;DHT22;38503;48.544;12.142;2022-10-20T00:09:27;9.80;99.90
52609;DHT22;38503;48.544;12.142;2022-10-20T00:11:54;9.80;99.90
52609;DHT22;38503;48.544;12.142;2022-10-20T00:14:21;9.80;99.90
52609;DHT22;38503;48.544;12.142;2022-10-20T00:16:47;9.70;99.90
52609;DHT22;38503;48.544;12.142;2022-10-20T00:19:14;9.70;99.90
52609;DHT22;38503;48.544;12.142;2022-10-20T00:21:41;9.60;99.90
52609;DHT22;38503;48.544;12.142;2022-10-20T00:24:08;9.60;99.90
52609;DHT22;38503;48.544;12.142;2022-10-20T00:26:35;9.60;99.90
52609;DHT22;38503;48.544;12.142;2022-10-20T00:29:03;9.60;99.90
52609;DHT22;38503;48.544;12.142;2022-10-20T00:31:32;9.60;99.90
52609;DHT22;38503;48.544;12.142;2022-10-20T00:33:59;9.60;99.90
52609;DHT22;38503;48.544;12.142;2022-10-20T00:36:26;9.60;99.90
52609;DHT22;38503;48.544;12.142;2022-10-20T00:38:59;9.60;99.90
52609;DHT22;38503;48.544;12.142;2022-10-20T00:41:27;9.60;99.90
52609;DHT22;38503;48.544;12.142;2022-10-20T00:44:43;9.50;99.90
52609;DHT22;38503;48.544;12.142;2022-10-20T00:46:46;9.50;99.90
52609;DHT22;38503;48.544;12.142;2022-10-20T00:49:21;9.50;99.90
52609;DHT22;38503;48.544;12.142;2022-10-20T00:51:52;9.50;99.90
52609;DHT22;38503;48.544;12.142;2022-10-20T00:54:23;9.40;99.90
52609;DHT22;38503;48.544;12.142;2022-10-20T00:56:54;9.40;99.90
52609;DHT22;38503;48.544;12.142;2022-10-20T00:59:27;9.30;99.90
52609;DHT22;38503;48.544;12.142;2022-10-20T01:01:54;9.40;99.90
52609;DHT22;38503;48.544;12.142;2022-10-20T01:04:22;9.40;99.90
52609;DHT22;38503;48.544;12.142;2022-10-20T01:06:49;9.40;99.90
52609;DHT22;38503;48.544;12.142;2022-10-20T01:09:17;9.30;99.90
52609;DHT22;38503;48.544;12.142;2022-10-20T01:12:00;9.30;99.90
52609;DHT22;38503;48.544;12.142;2022-10-20T01:17:40;9.20;99.90
52609;DHT22;38503;48.544;12.142;2022-10-20T01:23:42;9.10;99.90
52609;DHT22;38503;48.544;12.142;2022-10-20T01:26:54;9.20;99.90
52609;DHT22;38503;48.544;12.142;2022-10-20T01:29:32;9.20;99.90
52609;DHT22;38503;48.544;12.142;2022-10-20T01:32:14;9.10;99.90
52609;DHT22;38503;48.544;12.142;2022-10-20T01:37:27;9.00;99.90
52609;DHT22;38503;48.544;12.142;2022-10-20T01:40:33;9.00;99.90
52609;DHT22;38503;48.544;12.142;2022-10-20T01:43:05;9.10;99.90
52609;DHT22;38503;48.544;12.142;2022-10-20T01:45:35;9.00;99.90
52609;DHT22;38503;48.544;12.142;2022-10-20T01:48:05;9.00;99.90
52609;DHT22;38503;48.544;12.142;2022-10-20T01:50:35;8.90;99.90
52609;DHT22;38503;48.544;12.142;2022-10-20T01:53:03;8.90;99.90
52609;DHT22;38503;48.544;12.142;2022-10-20T01:55:30;9.00;99.90
52609;DHT22;38503;48.544;12.142;2022-10-20T02:01:10;8.80;99.90
52609;DHT22;38503;48.544;12.142;2022-10-20T02:03:53;8.70;99.90
52609;DHT22;38503;48.544;12.142;2022-10-20T02:09:24;8.70;99.90
52609;DHT22;38503;48.544;12.142;2022-10-20T02:11:59;8.70;99.90
52609;DHT22;38503;48.544;12.142;2022-10-20T02:14:28;8.70;99.90
52609;DHT22;38503;48.544;12.142;2022-10-20T02:16:58;8.60;99.90
52609;DHT22;38503;48.544;12.142;2022-10-20T02:19:30;8.60;99.90
52609;DHT22;38503;48.544;12.142;2022-10-20T02:21:59;8.60;99.90
52609;DHT22;38503;48.544;12.142;2022-10-20T02:24:31;8.50;99.90
52609;DHT22;38503;48.544;12.142;2022-10-20T02:27:03;8.50;99.90
52609;DHT22;38503;48.544;12.142;2022-10-20T02:29:37;8.50;99.90
52609;DHT22;38503;48.544;12.142;2022-10-20T02:32:06;8.40;99.90
52609;DHT22;38503;48.544;12.142;2022-10-20T02:34:33;8.40;99.90
52609;DHT22;38503;48.544;12.142;2022-10-20T02:37:05;8.40;99.90
52609;DHT22;38503;48.544;12.142;2022-10-20T02:39:31;8.40;99.90
52609;DHT22;38503;48.544;12.142;2022-10-20T02:41:58;8.40;99.90
52609;DHT22;38503;48.544;12.142;2022-10-20T02:44:25;8.30;99.90
52609;DHT22;38503;48.544;12.142;2022-10-20T02:46:52;8.40;99.90
52609;DHT22;38503;48.544;12.142;2022-10-20T02:49:19;8.30;99.90
52609;DHT22;38503;48.544;12.142;2022-10-20T02:51:47;8.40;99.90
52609;DHT22;38503;48.544;12.142;2022-10-20T02:54:14;8.30;99.90
52609;DHT22;38503;48.544;12.142;2022-10-20T02:56:40;8.30;99.90
52609;DHT22;38503;48.544;12.142;2022-10-20T02:59:12;8.20;99.90
52609;DHT22;38503;48.544;12.142;2022-10-20T03:01:40;8.30;99.90
52609;DHT22;38503;48.544;12.142;2022-10-20T03:04:06;8.20;99.90
52609;DHT22;38503;48.544;12.142;2022-10-20T03:06:33;8.20;99.90
52609;DHT22;38503;48.544;12.142;2022-10-20T03:09:00;8.20;99.90
52609;DHT22;38503;48.544;12.142;2022-10-20T03:11:27;8.20;99.90
52609;DHT22;38503;48.544;12.142;2022-10-20T03:13:54;8.20;99.90
52609;DHT22;38503;48.544;12.142;2022-10-20T03:16:21;8.20;99.90
52609;DHT22;38503;48.544;12.142;2022-10-20T03:18:50;8.20;99.90
52609;DHT22;38503;48.544;12.142;2022-10-20T03:21:17;8.20;99.90
52609;DHT22;38503;48.544;12.142;2022-10-20T03:23:44;8.10;99.90
52609;DHT22;38503;48.544;12.142;2022-10-20T03:26:11;8.10;99.90
52609;DHT22;38503;48.544;12.142;2022-10-20T03:28:38;8.10;99.90
52609;DHT22;38503;48.544;12.142;2022-10-20T03:31:06;8.10;99.90
52609;DHT22;38503;48.544;12.142;2022-10-20T03:33:33;8.10;99.90
52609;DHT22;38503;48.544;12.142;2022-10-20T03:36:00;8.10;99.90
52609;DHT22;38503;48.544;12.142;2022-10-20T03:38:27;8.10;99.90
52609;DHT22;38503;48.544;12.142;2022-10-20T03:40:54;8.10;99.90
52609;DHT22;38503;48.544;12.142;2022-10-20T03:43:21;8.10;99.90
52609;DHT22;38503;48.544;12.142;2022-10-20T03:45:48;8.10;99.90
52609;DHT22;38503;48.544;12.142;2022-10-20T03:48:15;8.10;99.90
52609;DHT22;38503;48.544;12.142;2022-10-20T03:50:42;8.10;99.90
52609;DHT22;38503;48.544;12.142;2022-10-20T03:53:12;8.00;99.90
52609;DHT22;38503;48.544;12.142;2022-10-20T03:55:39;8.10;99.90
52609;DHT22;38503;48.544;12.142;2022-10-20T03:58:06;8.10;99.90
52609;DHT22;38503;48.544;12.142;2022-10-20T04:00:33;8.10;99.90
52609;DHT22;38503;48.544;12.142;2022-10-20T04:03:00;8.10;99.90
52609;DHT22;38503;48.544;12.142;2022-10-20T04:05:27;8.10;99.90
52609;DHT22;38503;48.544;12.142;2022-10-20T04:07:53;8.10;99.90
52609;DHT22;38503;48.544;12.142;2022-10-20T04:10:20;8.10;99.90
52609;DHT22;38503;48.544;12.142;2022-10-20T04:12:47;8.00;99.90
52609;DHT22;38503;48.544;12.142;2022-10-20T04:15:14;8.00;99.90
52609;DHT22;38503;48.544;12.142;2022-10-20T04:17:44;8.00;99.90
52609;DHT22;38503;48.544;12.142;2022-10-20T04:20:10;8.00;99.90
52609;DHT22;38503;48.544;12.142;2022-10-20T04:22:37;7.90;99.90
52609;DHT22;38503;48.544;12.142;2022-10-20T04:25:05;7.90;99.90
52609;DHT22;38503;48.544;12.142;2022-10-20T04:27:34;7.80;99.90
52609;DHT22;38503;48.544;12.142;2022-10-20T04:30:02;7.80;99.90
52609;DHT22;38503;48.544;12.142;2022-10-20T04:32:29;7.90;99.90
52609;DHT22;38503;48.544;12.142;2022-10-20T04:34:55;7.90;99.90
52609;DHT22;38503;48.544;12.142;2022-10-20T04:37:22;7.90;99.90
52609;DHT22;38503;48.544;12.142;2022-10-20T04:39:49;7.80;99.90
52609;DHT22;38503;48.544;12.142;2022-10-20T04:42:17;7.70;99.90
52609;DHT22;38503;48.544;12.142;2022-10-20T04:44:45;7.70;99.90
52609;DHT22;38503;48.544;12.142;2022-10-20T04:47:12;7.70;99.90
52609;DHT22;38503;48.544;12.142;2022-10-20T04:49:39;7.70;99.90
52609;DHT22;38503;48.544;12.142;2022-10-20T04:52:06;7.70;99.90
52609;DHT22;38503;48.544;12.142;2022-10-20T04:54:33;7.80;99.90
52609;DHT22;38503;48.544;12.142;2022-10-20T04:57:00;7.70;99.90
52609;DHT22;38503;48.544;12.142;2022-10-20T04:59:27;7.70;99.90
52609;DHT22;38503;48.544;12.142;2022-10-20T05:01:54;7.70;99.90
52609;DHT22;38503;48.544;12.142;2022-10-20T05:04:21;7.60;99.90
52609;DHT22;38503;48.544;12.142;2022-10-20T05:06:48;7.70;99.90
52609;DHT22;38503;48.544;12.142;2022-10-20T05:09:15;7.60;99.90
52609;DHT22;38503;48.544;12.142;2022-10-20T05:11:42;7.60;99.90
52609;DHT22;38503;48.544;12.142;2022-10-20T05:14:09;7.60;99.90
52609;DHT22;38503;48.544;12.142;2022-10-20T05:16:36;7.60;99.90
52609;DHT22;38503;48.544;12.142;2022-10-20T05:19:03;7.60;99.90
52609;DHT22;38503;48.544;12.142;2022-10-20T05:21:31;7.60;99.90
52609;DHT22;38503;48.544;12.142;2022-10-20T05:24:01;7.60;99.90
52609;DHT22;38503;48.544;12.142;2022-10-20T05:26:30;7.60;99.90
52609;DHT22;38503;48.544;12.142;2022-10-20T05:29:04;7.50;99.90
52609;DHT22;38503;48.544;12.142;2022-10-20T05:31:35;7.60;99.90
52609;DHT22;38503;48.544;12.142;2022-10-20T05:34:02;7.60;99.90
52609;DHT22;38503;48.544;12.142;2022-10-20T05:36:29;7.60;99.90
52609;DHT22;38503;48.544;12.142;2022-10-20T05:38:56;7.60;99.90
52609;DHT22;38503;48.544;12.142;2022-10-20T05:41:29;7.50;99.90
52609;DHT22;38503;48.544;12.142;2022-10-20T05:44:04;7.60;99.90
52609;DHT22;38503;48.544;12.142;2022-10-20T05:46:34;7.50;99.90
52609;DHT22;38503;48.544;12.142;2022-10-20T05:49:03;7.50;99.90
52609;DHT22;38503;48.544;12.142;2022-10-20T05:51:33;7.60;99.90
52609;DHT22;38503;48.544;12.142;2022-10-20T05:54:01;7.60;99.90
52609;DHT22;38503;48.544;12.142;2022-10-20T05:56:29;7.60;99.90
52609;DHT22;38503;48.544;12.142;2022-10-20T05:58:57;7.70;99.90
52609;DHT22;38503;48.544;12.142;2022-10-20T06:01:26;7.80;99.90
52609;DHT22;38503;48.544;12.142;2022-10-20T06:03:58;7.90;99.90
52609;DHT22;38503;48.544;12.142;2022-10-20T06:06:28;8.10;99.90
52609;DHT22;38503;48.544;12.142;2022-10-20T06:08:57;8.20;99.90
52609;DHT22;38503;48.544;12.142;2022-10-20T06:11:25;8.20;99.90
52609;DHT22;38503;48.544;12.142;2022-10-20T06:13:52;8.40;99.90
52609;DHT22;38503;48.544;12.142;2022-10-20T06:16:21;8.50;99.90
52609;DHT22;38503;48.544;12.142;2022-10-20T06:18:49;9.10;99.90
52609;DHT22;38503;48.544;12.142;2022-10-20T06:21:18;10.00;99.90
52609;DHT22;38503;48.544;12.142;2022-10-20T06:23:45;10.70;99.90
52609;DHT22;38503;48.544;12.142;2022-10-20T06:26:14;11.30;99.90
52609;DHT22;38503;48.544;12.142;2022-10-20T06:28:46;11.60;99.90
52609;DHT22;38503;48.544;12.142;2022-10-20T06:31:23;11.20;99.90
52609;DHT22;38503;48.544;12.142;2022-10-20T06:33:50;11.00;99.90
52609;DHT22;38503;48.544;12.142;2022-10-20T06:36:18;11.00;99.90
52609;DHT22;38503;48.544;12.142;2022-10-20T06:38:46;11.20;99.90
52609;DHT22;38503;48.544;12.142;2022-10-20T06:41:15;11.70;99.90
52609;DHT22;38503;48.544;12.142;2022-10-20T06:43:43;11.90;99.90
52609;DHT22;38503;48.544;12.142;2022-10-20T06:46:13;12.70;99.90
52609;DHT22;38503;48.544;12.142;2022-10-20T06:48:40;12.40;99.10
52609;DHT22;38503;48.544;12.142;2022-10-20T06:51:10;12.20;1.00
52609;DHT22;38503;48.544;12.142;2022-10-20T06:53:37;12.20;99.90
52609;DHT22;38503;48.544;12.142;2022-10-20T06:56:13;12.40;99.90
52609;DHT22;38503;48.544;12.142;2022-10-20T06:58:42;12.70;99.90
52609;DHT22;38503;48.544;12.142;2022-10-20T07:01:17;12.10;99.90
52609;DHT22;38503;48.544;12.142;2022-10-20T07:03:46;12.00;99.90
52609;DHT22;38503;48.544;12.142;2022-10-20T07:06:25;11.80;99.90
52609;DHT22;38503;48.544;12.142;2022-10-20T07:08:53;11.60;99.90
52609;DHT22;38503;48.544;12.142;2022-10-20T07:11:26;12.60;99.90
52609;DHT22;38503;48.544;12.142;2022-10-20T07:13:54;12.40;99.90
52609;DHT22;38503;48.544;12.142;2022-10-20T07:16:23;12.80;99.90
52609;DHT22;38503;48.544;12.142;2022-10-20T07:18:50;12.90;99.90
52609;DHT22;38503;48.544;12.142;2022-10-20T07:21:23;13.60;99.90
52609;DHT22;38503;48.544;12.142;2022-10-20T07:24:00;13.60;99.90
52609;DHT22;38503;48.544;12.142;2022-10-20T07:26:29;14.00;99.90
52609;DHT22;38503;48.544;12.142;2022-10-20T07:28:58;14.10;99.10
52609;DHT22;38503;48.544;12.142;2022-10-20T07:31:28;14.80;98.70
52609;DHT22;38503;48.544;12.142;2022-10-20T07:33:58;15.10;98.40
52609;DHT22;38503;48.544;12.142;2022-10-20T07:36:41;15.80;97.10
52609;DHT22;38503;48.544;12.142;2022-10-20T07:39:11;15.80;96.20
52609;DHT22;38503;48.544;12.142;2022-10-20T07:41:38;15.50;96.80
52609;DHT22;38503;48.544;12.142;2022-10-20T07:44:06;15.00;96.80
52609;DHT22;38503;48.544;12.142;2022-10-20T07:46:33;14.60;1.00
52609;DHT22;38503;48.544;12.142;2022-10-20T07:49:01;16.20;97.30
52609;DHT22;38503;48.544;12.142;2022-10-20T07:51:48;15.80;96.30
52609;DHT22;38503;48.544;12.142;2022-10-20T07:54:15;16.00;96.40
52609;DHT22;38503;48.544;12.142;2022-10-20T07:56:42;16.90;95.70
52609;DHT22;38503;48.544;12.142;2022-10-20T07:59:12;17.00;94.80
52609;DHT22;38503;48.544;12.142;2022-10-20T08:01:40;17.20;94.40
52609;DHT22;38503;48.544;12.142;2022-10-20T08:04:07;17.30;94.30
52609;DHT22;38503;48.544;12.142;2022-10-20T08:06:34;17.70;94.00
52609;DHT22;38503;48.544;12.142;2022-10-20T08:09:01;17.80;93.40
52609;DHT22;38503;48.544;12.142;2022-10-20T08:11:29;17.20;94.00
52609;DHT22;38503;48.544;12.142;2022-10-20T08:13:56;16.70;94.50
52609;DHT22;38503;48.544;12.142;2022-10-20T08:16:22;16.90;94.80
52609;DHT22;38503;48.544;12.142;2022-10-20T08:18:54;16.50;95.00
52609;DHT22;38503;48.544;12.142;2022-10-20T08:21:35;16.30;95.20
52609;DHT22;38503;48.544;12.142;2022-10-20T08:24:02;15.80;99.90
52609;DHT22;38503;48.544;12.142;2022-10-20T08:26:29;16.80;95.60
52609;DHT22;38503;48.544;12.142;2022-10-20T08:28:56;16.30;94.90
52609;DHT22;38503;48.544;12.142;2022-10-20T08:31:23;15.80;95.10
52609;DHT22;38503;48.544;12.142;2022-10-20T08:33:50;15.90;95.90
52609;DHT22;38503;48.544;12.142;2022-10-20T08:36:19;15.20;99.90
52609;DHT22;38503;48.544;12.142;2022-10-20T08:38:47;15.30;96.30
52609;DHT22;38503;48.544;12.142;2022-10-20T08:41:18;15.50;96.30
52609;DHT22;38503;48.544;12.142;2022-10-20T08:43:47;15.30;96.50
52609;DHT22;38503;48.544;12.142;2022-10-20T08:46:16;16.50;96.00
52609;DHT22;38503;48.544;12.142;2022-10-20T08:48:45;17.60;94.80
52609;DHT22;38503;48.544;12.142;2022-10-20T08:51:31;17.30;94.40
52609;DHT22;38503;48.544;12.142;2022-10-20T08:53:59;16.90;94.90
52609;DHT22;38503;48.544;12.142;2022-10-20T08:56:28;16.90;95.00
52609;DHT22;38503;48.544;12.142;2022-10-20T08:58:55;17.20;94.90
52609;DHT22;38503;48.544;12.142;2022-10-20T09:01:38;17.50;94.30
52609;DHT22;38503;48.544;12.142;2022-10-20T09:04:33;16.00;1.00
52609;DHT22;38503;48.544;12.142;2022-10-20T09:07:04;16.10;95.40
52609;DHT22;38503;48.544;12.142;2022-10-20T09:09:35;16.80;95.90
52609;DHT22;38503;48.544;12.142;2022-10-20T09:12:05;17.00;95.10
52609;DHT22;38503;48.544;12.142;2022-10-20T09:14:35;17.70;94.80
52609;DHT22;38503;48.544;12.142;2022-10-20T09:17:03;17.90;93.90
52609;DHT22;38503;48.544;12.142;2022-10-20T09:19:35;17.10;94.30
52609;DHT22;38503;48.544;12.142;2022-10-20T09:22:04;17.70;94.30
52609;DHT22;38503;48.544;12.142;2022-10-20T09:24:34;17.90;94.10
52609;DHT22;38503;48.544;12.142;2022-10-20T09:27:23;18.40;93.70
52609;DHT22;38503;48.544;12.142;2022-10-20T09:29:55;17.40;94.30
52609;DHT22;38503;48.544;12.142;2022-10-20T09:32:35;17.90;94.40
52609;DHT22;38503;48.544;12.142;2022-10-20T09:35:31;19.30;93.50
52609;DHT22;38503;48.544;12.142;2022-10-20T09:40:43;19.60;91.80
52609;DHT22;38503;48.544;12.142;2022-10-20T09:43:15;20.10;92.60
52609;DHT22;38503;48.544;12.142;2022-10-20T09:45:53;19.50;92.10
52609;DHT22;38503;48.544;12.142;2022-10-20T09:48:27;19.30;92.70
52609;DHT22;38503;48.544;12.142;2022-10-20T09:50:56;19.00;92.40
52609;DHT22;38503;48.544;12.142;2022-10-20T09:53:31;20.40;92.30
52609;DHT22;38503;48.544;12.142;2022-10-20T09:55:59;19.70;91.80
52609;DHT22;38503;48.544;12.142;2022-10-20T09:58:34;19.90;92.10
52609;DHT22;38503;48.544;12.142;2022-10-20T10:01:14;19.70;92.40
52609;DHT22;38503;48.544;12.142;2022-10-20T10:08:54;20.60;92.30
52609;DHT22;38503;48.544;12.142;2022-10-20T10:11:33;20.80;91.50
52609;DHT22;38503;48.544;12.142;2022-10-20T10:14:01;21.10;91.60
52609;DHT22;38503;48.544;12.142;2022-10-20T10:16:39;21.70;90.40
52609;DHT22;38503;48.544;12.142;2022-10-20T10:19:16;20.30;90.90
52609;DHT22;38503;48.544;12.142;2022-10-20T10:22:02;20.80;91.40
52609;DHT22;38503;48.544;12.142;2022-10-20T10:24:42;19.10;91.50
52609;DHT22;38503;48.544;12.142;2022-10-20T10:27:26;19.00;92.30
52609;DHT22;38503;48.544;12.142;2022-10-20T10:30:24;18.80;57.40
52609;DHT22;38503;48.544;12.142;2022-10-20T10:32:54;18.90;93.10
52609;DHT22;38503;48.544;12.142;2022-10-20T10:35:37;18.50;92.80
52609;DHT22;38503;48.544;12.142;2022-10-20T10:38:08;18.30;93.10
52609;DHT22;38503;48.544;12.142;2022-10-20T10:46:35;19.80;93.40
52609;DHT22;38503;48.544;12.142;2022-10-20T10:55:08;20.40;91.90
52609;DHT22;38503;48.544;12.142;2022-10-20T11:01:07;21.20;91.90
52609;DHT22;38503;48.544;12.142;2022-10-20T11:09:07;22.30;91.40
52609;DHT22;38503;48.544;12.142;2022-10-20T11:12:10;22.50;90.50
52609;DHT22;38503;48.544;12.142;2022-10-20T11:20:23;18.60;1.00
52609;DHT22;38503;48.544;12.142;2022-10-20T11:26:31;18.50;2.80
52609;DHT22;38503;48.544;12.142;2022-10-20T11:29:00;19.60;93.60
52609;DHT22;38503;48.544;12.142;2022-10-20T11:31:55;19.00;93.30
52609;DHT22;38503;48.544;12.142;2022-10-20T11:38:06;18.40;42.60
52609;DHT22;38503;48.544;12.142;2022-10-20T11:40:44;20.00;93.60
52609;DHT22;38503;48.544;12.142;2022-10-20T11:43:31;20.30;92.80
52609;DHT22;38503;48.544;12.142;2022-10-20T11:46:04;19.00;93.30
52609;DHT22;38503;48.544;12.142;2022-10-20T11:49:01;18.70;93.70
52609;DHT22;38503;48.544;12.142;2022-10-20T11:57:02;18.70;94.50
52609;DHT22;38503;48.544;12.142;2022-10-20T12:05:22;18.20;99.90
52609;DHT22;38503;48.544;12.142;2022-10-20T12:08:10;17.30;99.90
52609;DHT22;38503;48.544;12.142;2022-10-20T12:15:52;18.90;94.20
52609;DHT22;38503;48.544;12.142;2022-10-20T12:18:32;18.70;95.20
52609;DHT22;38503;48.544;12.142;2022-10-20T12:21:05;18.60;94.90
52609;DHT22;38503;48.544;12.142;2022-10-20T12:23:56;18.40;95.10
52609;DHT22;38503;48.544;12.142;2022-10-20T12:28:59;17.30;1.00
52609;DHT22;38503;48.544;12.142;2022-10-20T12:34:39;17.20;97.00
52609;DHT22;38503;48.544;12.142;2022-10-20T12:37:12;16.50;97.70
52609;DHT22;38503;48.544;12.142;2022-10-20T12:39:42;16.40;98.20
52609;DHT22;38503;48.544;12.142;2022-10-20T12:42:30;16.60;98.50
52609;DHT22;38503;48.544;12.142;2022-10-20T12:45:02;16.40;98.60
52609;DHT22;38503;48.544;12.142;2022-10-20T12:47:32;16.70;98.60
52609;DHT22;38503;48.544;12.142;2022-10-20T12:56:09;16.00;99.80
52609;DHT22;38503;48.544;12.142;2022-10-20T12:58:38;16.10;99.80
52609;DHT22;38503;48.544;12.142;2022-10-20T13:01:25;16.20;99.70
52609;DHT22;38503;48.544;12.142;2022-10-20T13:03:54;16.20;99.90
52609;DHT22;38503;48.544;12.142;2022-10-20T13:16:45;16.10;99.90
52609;DHT22;38503;48.544;12.142;2022-10-20T13:19:19;16.10;99.90
52609;DHT22;38503;48.544;12.142;2022-10-20T13:21:48;16.20;99.90
52609;DHT22;38503;48.544;12.142;2022-10-20T13:24:28;16.10;99.90
52609;DHT22;38503;48.544;12.142;2022-10-20T13:27:01;16.30;99.90
52609;DHT22;38503;48.544;12.142;2022-10-20T13:29:40;16.20;99.90
52609;DHT22;38503;48.544;12.142;2022-10-20T13:34:55;16.20;99.90
52609;DHT22;38503;48.544;12.142;2022-10-20T13:43:48;16.60;99.90
52609;DHT22;38503;48.544;12.142;2022-10-20T13:52:23;16.20;99.90
52609;DHT22;38503;48.544;12.142;2022-10-20T13:54:52;16.10;99.90
52609;DHT22;38503;48.544;12.142;2022-10-20T13:57:30;16.20;99.90
52609;DHT22;38503;48.544;12.142;2022-10-20T14:00:13;16.20;99.90
52609;DHT22;38503;48.544;12.142;2022-10-20T14:02:55;16.30;99.90
52609;DHT22;38503;48.544;12.142;2022-10-20T14:05:23;16.40;99.90
52609;DHT22;38503;48.544;12.142;2022-10-20T14:07:51;16.30;99.90
52609;DHT22;38503;48.544;12.142;2022-10-20T14:11:05;16.40;99.90
52609;DHT22;38503;48.544;12.142;2022-10-20T14:13:28;16.40;99.90
52609;DHT22;38503;48.544;12.142;2022-10-20T14:15:58;16.20;99.90
52609;DHT22;38503;48.544;12.142;2022-10-20T14:18:33;16.20;99.90
52609;DHT22;38503;48.544;12.142;2022-10-20T14:21:18;16.10;99.90
52609;DHT22;38503;48.544;12.142;2022-10-20T14:23:45;15.90;99.90
52609;DHT22;38503;48.544;12.142;2022-10-20T14:26:18;15.80;99.90
52609;DHT22;38503;48.544;12.142;2022-10-20T14:28:47;15.60;99.90
52609;DHT22;38503;48.544;12.142;2022-10-20T14:31:15;15.50;99.90
52609;DHT22;38503;48.544;12.142;2022-10-20T14:33:47;15.50;99.90
52609;DHT22;38503;48.544;12.142;2022-10-20T14:38:47;15.40;99.90
52609;DHT22;38503;48.544;12.142;2022-10-20T14:41:27;15.40;99.90
52609;DHT22;38503;48.544;12.142;2022-10-20T14:44:00;15.30;99.90
52609;DHT22;38503;48.544;12.142;2022-10-20T14:46:48;15.20;99.90
52609;DHT22;38503;48.544;12.142;2022-10-20T14:49:21;15.20;99.90
52609;DHT22;38503;48.544;12.142;2022-10-20T14:51:57;15.20;99.90
52609;DHT22;38503;48.544;12.142;2022-10-20T14:54:32;15.20;99.90
52609;DHT22;38503;48.544;12.142;2022-10-20T14:59:49;15.10;99.90
52609;DHT22;38503;48.544;12.142;2022-10-20T15:02:20;15.00;99.90
52609;DHT22;38503;48.544;12.142;2022-10-20T15:04:48;15.00;99.90
52609;DHT22;38503;48.544;12.142;2022-10-20T15:09:51;15.00;99.90
52609;DHT22;38503;48.544;12.142;2022-10-20T15:12:21;14.90;99.90
52609;DHT22;38503;48.544;12.142;2022-10-20T15:14:51;14.80;99.90
52609;DHT22;38503;48.544;12.142;2022-10-20T15:19:56;14.70;99.90
52609;DHT22;38503;48.544;12.142;2022-10-20T15:22:23;14.60;99.90
52609;DHT22;38503;48.544;12.142;2022-10-20T15:24:50;14.60;99.90
52609;DHT22;38503;48.544;12.142;2022-10-20T15:27:20;14.50;99.90
52609;DHT22;38503;48.544;12.142;2022-10-20T15:29:48;14.50;99.90
52609;DHT22;38503;48.544;12.142;2022-10-20T15:32:16;14.40;99.90
52609;DHT22;38503;48.544;12.142;2022-10-20T15:34:43;14.40;99.90
52609;DHT22;38503;48.544;12.142;2022-10-20T15:37:10;14.30;99.90
52609;DHT22;38503;48.544;12.142;2022-10-20T15:39:37;14.30;99.90
52609;DHT22;38503;48.544;12.142;2022-10-20T15:42:08;14.30;99.90
52609;DHT22;38503;48.544;12.142;2022-10-20T15:44:37;14.30;99.90
52609;DHT22;38503;48.544;12.142;2022-10-20T15:47:04;14.30;99.90
52609;DHT22;38503;48.544;12.142;2022-10-20T15:49:31;14.30;99.90
52609;DHT22;38503;48.544;12.142;2022-10-20T15:51:57;14.30;99.90
52609;DHT22;38503;48.544;12.142;2022-10-20T15:54:24;14.30;99.90
52609;DHT22;38503;48.544;12.142;2022-10-20T15:56:51;14.20;99.90
52609;DHT22;38503;48.544;12.142;2022-10-20T15:59:18;14.30;99.90
52609;DHT22;38503;48.544;12.142;2022-10-20T16:01:45;14.20;99.90
52609;DHT22;38503;48.544;12.142;2022-10-20T16:04:19;14.10;99.90
52609;DHT22;38503;48.544;12.142;2022-10-20T16:06:49;14.10;99.90
52609;DHT22;38503;48.544;12.142;2022-10-20T16:09:25;14.10;99.90
52609;DHT22;38503;48.544;12.142;2022-10-20T16:11:55;14.00;99.90
52609;DHT22;38503;48.544;12.142;2022-10-20T16:14:22;14.00;99.90
52609;DHT22;38503;48.544;12.142;2022-10-20T16:16:49;13.90;99.90
52609;DHT22;38503;48.544;12.142;2022-10-20T16:19:15;13.90;99.90
52609;DHT22;38503;48.544;12.142;2022-10-20T16:21:42;13.90;99.90
52609;DHT22;38503;48.544;12.142;2022-10-20T16:24:09;13.80;99.90
52609;DHT22;38503;48.544;12.142;2022-10-20T16:26:37;13.70;99.90
52609;DHT22;38503;48.544;12.142;2022-10-20T16:29:04;13.70;99.90
52609;DHT22;38503;48.544;12.142;2022-10-20T16:31:30;13.60;99.90
52609;DHT22;38503;48.544;12.142;2022-10-20T16:33:58;13.60;99.90
52609;DHT22;38503;48.544;12.142;2022-10-20T16:36:25;13.50;99.90
52609;DHT22;38503;48.544;12.142;2022-10-20T16:38:56;13.50;99.90
52609;DHT22;38503;48.544;12.142;2022-10-20T16:41:23;13.40;99.90
52609;DHT22;38503;48.544;12.142;2022-10-20T16:43:50;13.40;99.90
52609;DHT22;38503;48.544;12.142;2022-10-20T16:46:17;13.40;99.90
52609;DHT22;38503;48.544;12.142;2022-10-20T16:48:44;13.40;99.90
52609;DHT22;38503;48.544;12.142;2022-10-20T16:51:14;13.30;99.90
52609;DHT22;38503;48.544;12.142;2022-10-20T16:53:41;13.30;99.90
52609;DHT22;38503;48.544;12.142;2022-10-20T16:56:08;13.30;99.90
52609;DHT22;38503;48.544;12.142;2022-10-20T16:58:35;13.20;99.90
52609;DHT22;38503;48.544;12.142;2022-10-20T17:01:06;13.20;99.90
52609;DHT22;38503;48.544;12.142;2022-10-20T17:03:41;13.20;99.90
52609;DHT22;38503;48.544;12.142;2022-10-20T17:06:09;13.10;99.90
52609;DHT22;38503;48.544;12.142;2022-10-20T17:08:37;13.10;99.90
52609;DHT22;38503;48.544;12.142;2022-10-20T17:11:09;13.00;99.90
52609;DHT22;38503;48.544;12.142;2022-10-20T17:13:38;13.00;99.90
52609;DHT22;38503;48.544;12.142;2022-10-20T17:16:26;12.90;99.90
52609;DHT22;38503;48.544;12.142;2022-10-20T17:18:55;12.80;99.90
52609;DHT22;38503;48.544;12.142;2022-10-20T17:21:23;12.80;99.90
52609;DHT22;38503;48.544;12.142;2022-10-20T17:23:50;12.80;99.90
52609;DHT22;38503;48.544;12.142;2022-10-20T17:26:19;12.80;99.90
52609;DHT22;38503;48.544;12.142;2022-10-20T17:28:47;12.70;99.90
52609;DHT22;38503;48.544;12.142;2022-10-20T17:31:16;12.60;99.90
52609;DHT22;38503;48.544;12.142;2022-10-20T17:33:46;12.60;99.90
52609;DHT22;38503;48.544;12.142;2022-10-20T17:36:13;12.60;99.90
52609;DHT22;38503;48.544;12.142;2022-10-20T17:38:41;12.50;99.90
52609;DHT22;38503;48.544;12.142;2022-10-20T17:41:13;12.50;99.90
52609;DHT22;38503;48.544;12.142;2022-10-20T17:43:40;12.50;99.90
52609;DHT22;38503;48.544;12.142;2022-10-20T17:46:13;12.50;99.90
52609;DHT22;38503;48.544;12.142;2022-10-20T17:48:40;12.50;99.90